createdAt,value
2022-08-03T00:00:24.130Z,11.80
2022-08-03T00:02:50.726Z,17.95
2022-08-03T00:05:17.259Z,10.18
2022-08-03T00:07:43.742Z,11.27
2022-08-03T00:10:12.585Z,16.40
2022-08-03T00:12:39.133Z,9.68
2022-08-03T00:15:11.122Z,15.43
2022-08-03T00:17:52.795Z,11.98
2022-08-03T00:20:24.061Z,12.30
2022-08-03T00:22:50.671Z,16.17
2022-08-03T00:25:17.917Z,11.93
2022-08-03T00:27:44.777Z,12.10
2022-08-03T00:30:11.445Z,16.50
2022-08-03T00:32:38.768Z,11.13
2022-08-03T00:35:18.239Z,14.48
2022-08-03T00:37:59.213Z,11.40
2022-08-03T00:40:28.953Z,11.93
2022-08-03T00:42:59.247Z,11.75
2022-08-03T00:45:30.714Z,13.70
2022-08-03T00:47:58.214Z,14.77
2022-08-03T00:50:27.043Z,18.17
2022-08-03T00:52:55.526Z,18.80
2022-08-03T00:55:22.418Z,13.25
2022-08-03T00:57:49.402Z,16.92
2022-08-03T01:00:20.313Z,14.82
2022-08-03T01:02:49.597Z,14.70
2022-08-03T01:05:16.226Z,11.70
2022-08-03T01:07:54.634Z,20.52
2022-08-03T01:10:45.496Z,16.40
2022-08-03T01:14:02.335Z,15.20
2022-08-03T01:16:37.278Z,15.10
2022-08-03T01:19:23.042Z,25.70
2022-08-03T01:21:59.534Z,18.17
2022-08-03T01:25:05.738Z,17.13
2022-08-03T01:27:56.714Z,11.02
2022-08-03T01:30:29.695Z,14.15
2022-08-03T01:33:03.375Z,17.85
2022-08-03T01:35:42.923Z,18.25
2022-08-03T01:38:18.041Z,18.42
2022-08-03T01:40:46.926Z,16.23
2022-08-03T01:43:55.298Z,14.45
2022-08-03T01:46:06.662Z,19.25
2022-08-03T01:48:34.460Z,19.23
2022-08-03T01:51:01.070Z,23.30
2022-08-03T01:53:28.490Z,15.82
2022-08-03T01:55:57.337Z,26.33
2022-08-03T01:58:25.073Z,18.40
2022-08-03T02:00:53.486Z,17.75
2022-08-03T02:03:23.151Z,13.98
2022-08-03T02:06:11.523Z,27.92
2022-08-03T02:08:41.775Z,16.25
2022-08-03T02:11:08.689Z,16.45
2022-08-03T02:13:35.517Z,14.60
2022-08-03T02:16:05.536Z,18.77
2022-08-03T02:18:33.255Z,16.63
2022-08-03T02:21:05.478Z,17.33
2022-08-03T02:23:38.823Z,17.73
2022-08-03T02:26:09.266Z,23.70
2022-08-03T02:28:39.305Z,19.50
2022-08-03T02:31:18.054Z,21.35
2022-08-03T02:33:51.082Z,15.00
2022-08-03T02:36:25.819Z,20.15
2022-08-03T02:38:56.789Z,20.38
2022-08-03T02:41:30.733Z,22.40
2022-08-03T02:44:06.023Z,20.83
2022-08-03T02:46:38.425Z,20.33
2022-08-03T02:49:40.623Z,16.63
2022-08-03T02:51:54.692Z,16.25
2022-08-03T02:54:23.513Z,15.93
2022-08-03T02:56:51.985Z,21.10
2022-08-03T02:59:19.959Z,13.07
2022-08-03T03:01:47.086Z,21.75
2022-08-03T03:04:14.858Z,20.90
2022-08-03T03:06:42.596Z,22.25
2022-08-03T03:09:11.688Z,24.88
2022-08-03T03:11:39.264Z,28.17
2022-08-03T03:14:07.370Z,19.77
2022-08-03T03:16:36.291Z,28.38
2022-08-03T03:19:03.168Z,24.00
2022-08-03T03:21:31.085Z,30.38
2022-08-03T03:23:59.292Z,34.95
2022-08-03T03:26:25.949Z,32.22
2022-08-03T03:28:52.589Z,24.85
2022-08-03T03:31:19.231Z,25.95
2022-08-03T03:33:46.501Z,25.23
2022-08-03T03:36:12.967Z,29.75
2022-08-03T03:38:39.658Z,25.88
2022-08-03T03:41:06.498Z,26.08
2022-08-03T03:43:33.385Z,31.33
2022-08-03T03:46:01.053Z,27.88
2022-08-03T03:48:28.056Z,29.25
2022-08-03T03:50:54.858Z,26.00
2022-08-03T03:53:21.375Z,41.47
2022-08-03T03:55:57.928Z,19.75
2022-08-03T03:58:28.957Z,39.60
2022-08-03T04:00:55.676Z,31.02
2022-08-03T04:03:22.248Z,38.70
2022-08-03T04:06:07.723Z,26.73
2022-08-03T04:08:52.491Z,24.77
2022-08-03T04:11:34.674Z,24.52
2022-08-03T04:14:09.342Z,28.33
2022-08-03T04:16:43.419Z,28.85
2022-08-03T04:19:23.431Z,25.27
2022-08-03T04:21:52.850Z,31.10
2022-08-03T04:24:20.885Z,25.52
2022-08-03T04:26:54.008Z,36.97
2022-08-03T04:29:22.276Z,25.67
2022-08-03T04:31:50.644Z,26.92
2022-08-03T04:34:17.501Z,32.00
2022-08-03T04:36:58.173Z,32.90
2022-08-03T04:39:26.709Z,28.20
2022-08-03T04:42:08.222Z,38.92
2022-08-03T04:44:41.588Z,33.50
2022-08-03T04:49:37.232Z,43.78
2022-08-03T04:52:05.293Z,39.03
2022-08-03T04:54:39.504Z,33.97
2022-08-03T04:57:06.023Z,44.33
2022-08-03T04:59:32.773Z,39.92
2022-08-03T05:01:59.351Z,39.40
2022-08-03T05:04:25.837Z,50.20
2022-08-03T05:06:55.235Z,42.22
2022-08-03T05:09:39.575Z,38.92
2022-08-03T05:12:09.724Z,38.72
2022-08-03T05:14:38.280Z,36.45
2022-08-03T05:17:05.806Z,45.25
2022-08-03T05:19:32.370Z,48.67
2022-08-03T05:21:59.012Z,34.13
2022-08-03T05:24:25.593Z,32.47
2022-08-03T05:26:52.029Z,35.88
2022-08-03T05:29:18.484Z,34.60
2022-08-03T05:31:44.934Z,35.92
2022-08-03T05:34:11.359Z,36.75
2022-08-03T05:36:37.909Z,53.55
2022-08-03T05:39:04.472Z,50.03
2022-08-03T05:41:37.252Z,42.70
2022-08-03T05:44:04.817Z,38.30
2022-08-03T05:46:31.626Z,37.50
2022-08-03T05:48:58.242Z,39.00
2022-08-03T05:51:24.937Z,44.83
2022-08-03T05:53:51.424Z,42.35
2022-08-03T05:56:22.107Z,40.78
2022-08-03T05:58:48.636Z,41.58
2022-08-03T06:01:16.826Z,33.00
2022-08-03T06:03:43.567Z,31.95
2022-08-03T06:06:11.397Z,46.78
2022-08-03T06:08:38.399Z,41.67
2022-08-03T06:11:04.889Z,43.75
2022-08-03T06:13:32.156Z,53.85
2022-08-03T06:15:58.688Z,47.35
2022-08-03T06:18:25.687Z,38.17
2022-08-03T06:20:53.141Z,33.92
2022-08-03T06:23:20.073Z,51.85
2022-08-03T06:25:47.510Z,34.50
2022-08-03T06:28:42.677Z,50.05
2022-08-03T06:31:01.579Z,42.30
2022-08-03T06:34:30.002Z,43.28
2022-08-03T06:36:15.134Z,47.95
2022-08-03T06:38:41.658Z,43.78
2022-08-03T06:41:08.170Z,39.03
2022-08-03T06:43:37.613Z,57.85
2022-08-03T06:46:05.437Z,50.45
2022-08-03T06:48:32.219Z,49.45
2022-08-03T06:50:59.152Z,51.10
2022-08-03T06:53:25.734Z,53.33
2022-08-03T06:55:55.053Z,35.60
2022-08-03T06:58:22.388Z,63.35
2022-08-03T07:00:49.158Z,46.33
2022-08-03T07:03:16.319Z,39.88
2022-08-03T07:05:43.499Z,41.55
2022-08-03T07:08:10.168Z,47.03
2022-08-03T07:10:37.011Z,51.20
2022-08-03T07:13:04.643Z,46.83
2022-08-03T07:15:53.793Z,41.83
2022-08-03T07:18:18.138Z,47.55
2022-08-03T07:20:56.795Z,51.53
2022-08-03T07:23:23.351Z,43.45
2022-08-03T07:25:50.740Z,49.55
2022-08-03T07:28:17.288Z,46.08
2022-08-03T07:30:43.785Z,55.05
2022-08-03T07:33:10.324Z,52.08
2022-08-03T07:35:36.982Z,49.67
2022-08-03T07:38:03.457Z,44.10
2022-08-03T07:40:31.791Z,45.53
2022-08-03T07:42:58.811Z,56.95
2022-08-03T07:45:26.535Z,36.60
2022-08-03T07:47:53.605Z,37.92
2022-08-03T07:50:21.042Z,47.40
2022-08-03T07:52:51.654Z,39.90
2022-08-03T07:55:20.380Z,52.58
2022-08-03T07:57:47.773Z,35.63
2022-08-03T08:00:19.444Z,52.92
2022-08-03T08:02:46.178Z,38.33
2022-08-03T08:05:12.707Z,54.05
2022-08-03T08:07:40.297Z,50.75
2022-08-03T08:10:09.844Z,46.33
2022-08-03T08:12:37.776Z,37.30
2022-08-03T08:15:04.994Z,43.38
2022-08-03T08:17:31.477Z,36.85
2022-08-03T08:19:58.025Z,40.30
2022-08-03T08:22:30.404Z,37.90
2022-08-03T08:27:25.738Z,44.38
2022-08-03T08:29:55.278Z,43.58
2022-08-03T08:32:24.151Z,46.28
2022-08-03T08:34:50.938Z,27.35
2022-08-03T08:37:17.479Z,44.78
2022-08-03T08:39:43.906Z,41.15
2022-08-03T08:42:10.454Z,34.58
2022-08-03T08:44:36.943Z,37.55
2022-08-03T08:47:04.351Z,41.30
2022-08-03T08:49:35.825Z,45.28
2022-08-03T08:52:04.013Z,43.90
2022-08-03T08:54:52.195Z,38.60
2022-08-03T08:57:40.807Z,38.95
2022-08-03T09:00:10.311Z,49.33
2022-08-03T09:02:37.375Z,36.03
2022-08-03T09:05:07.397Z,33.22
2022-08-03T09:07:34.549Z,40.80
2022-08-03T09:10:11.727Z,46.38
2022-08-03T09:12:43.173Z,38.83
2022-08-03T09:15:17.585Z,37.25
2022-08-03T09:17:47.657Z,29.77
2022-08-03T09:20:18.057Z,34.88
2022-08-03T09:22:54.727Z,33.28
2022-08-03T09:25:28.127Z,32.13
2022-08-03T09:27:54.785Z,37.42
2022-08-03T09:30:34.327Z,40.03
2022-08-03T09:33:21.922Z,31.05
2022-08-03T09:35:54.226Z,33.38
2022-08-03T09:38:27.182Z,31.17
2022-08-03T09:40:59.545Z,39.55
2022-08-03T09:43:46.788Z,31.52
2022-08-03T09:46:13.402Z,46.03
2022-08-03T09:48:39.826Z,30.88
2022-08-03T09:51:14.041Z,41.00
2022-08-03T09:53:59.663Z,31.25
2022-08-03T09:56:47.237Z,25.55
2022-08-03T09:59:23.183Z,33.25
2022-08-03T10:01:49.709Z,34.97
2022-08-03T10:04:19.011Z,40.60
2022-08-03T10:07:01.003Z,32.47
2022-08-03T10:09:27.649Z,34.05
2022-08-03T10:11:54.685Z,39.60
2022-08-03T10:14:22.483Z,29.10
2022-08-03T10:16:50.076Z,27.65
2022-08-03T10:19:17.567Z,41.17
2022-08-03T10:21:51.016Z,33.67
2022-08-03T10:24:24.271Z,28.70
2022-08-03T10:26:51.600Z,33.72
2022-08-03T10:29:22.562Z,31.40
2022-08-03T10:31:58.246Z,30.67
2022-08-03T10:34:35.358Z,34.80
2022-08-03T10:37:08.001Z,27.38
2022-08-03T10:39:35.953Z,30.73
2022-08-03T10:42:03.822Z,28.10
2022-08-03T10:44:39.861Z,30.20
2022-08-03T10:47:10.404Z,26.08
2022-08-03T10:49:37.960Z,23.50
2022-08-03T10:52:31.694Z,28.35
2022-08-03T10:55:10.873Z,23.13
2022-08-03T10:57:42.254Z,28.73
2022-08-03T11:00:16.379Z,30.25
2022-08-03T11:03:09.263Z,33.50
2022-08-03T11:05:39.078Z,27.00
2022-08-03T11:08:24.755Z,26.05
2022-08-03T11:10:53.901Z,25.55
2022-08-03T11:13:23.853Z,27.50
2022-08-03T11:15:53.506Z,26.33
2022-08-03T11:18:27.142Z,25.75
2022-08-03T11:20:58.643Z,24.98
2022-08-03T11:24:03.321Z,20.70
2022-08-03T11:26:32.850Z,20.05
2022-08-03T11:29:29.372Z,23.92
2022-08-03T11:31:56.115Z,26.10
2022-08-03T11:34:24.336Z,20.85
2022-08-03T11:37:21.014Z,30.85
2022-08-03T11:39:50.328Z,24.27
2022-08-03T11:42:22.882Z,32.05
2022-08-03T11:45:01.564Z,34.35
2022-08-03T11:47:32.338Z,30.60
2022-08-03T11:50:01.871Z,29.80
2022-08-03T11:52:35.762Z,30.92
2022-08-03T11:55:03.016Z,26.92
2022-08-03T11:59:17.035Z,31.38
2022-08-03T12:00:23.858Z,26.02
2022-08-03T12:05:34.761Z,27.38
2022-08-03T12:08:03.032Z,30.15
2022-08-03T12:10:31.440Z,25.35
2022-08-03T12:12:59.768Z,23.23
2022-08-03T12:15:28.156Z,33.72
2022-08-03T12:17:57.995Z,27.13
2022-08-03T12:20:34.480Z,30.65
2022-08-03T12:23:06.802Z,26.52
2022-08-03T12:28:36.585Z,23.65
2022-08-03T12:31:11.763Z,22.55
2022-08-03T12:34:04.915Z,22.38
2022-08-03T12:36:33.749Z,21.15
2022-08-03T12:39:03.155Z,23.33
2022-08-03T12:41:37.985Z,28.48
2022-08-03T12:44:08.948Z,28.08
2022-08-03T12:46:46.912Z,22.80
2022-08-03T12:49:17.032Z,25.55
2022-08-03T12:51:43.642Z,22.15
2022-08-03T12:54:17.295Z,26.27
2022-08-03T12:57:00.677Z,21.17
2022-08-03T12:59:32.509Z,19.83
2022-08-03T13:02:16.235Z,24.52
2022-08-03T13:04:45.802Z,18.58
2022-08-03T13:07:14.377Z,21.75
2022-08-03T13:10:03.692Z,18.88
2022-08-03T13:12:32.815Z,20.23
2022-08-03T13:15:00.575Z,18.08
2022-08-03T13:17:28.022Z,28.58
2022-08-03T13:19:54.567Z,20.30
2022-08-03T13:22:27.266Z,16.50
2022-08-03T13:24:58.322Z,19.98
2022-08-03T13:28:04.148Z,25.33
2022-08-03T13:30:12.960Z,21.83
2022-08-03T13:32:39.610Z,16.60
2022-08-03T13:35:07.510Z,16.55
2022-08-03T13:37:34.357Z,16.35
2022-08-03T13:40:02.438Z,23.77
2022-08-03T13:42:30.985Z,13.55
2022-08-03T13:44:57.818Z,16.17
2022-08-03T13:47:24.354Z,20.20
2022-08-03T13:49:59.631Z,22.80
2022-08-03T13:52:30.153Z,15.10
2022-08-03T13:54:56.706Z,24.48
2022-08-03T13:58:04.543Z,14.93
2022-08-03T14:00:10.517Z,15.05
2022-08-03T14:02:37.141Z,12.05
2022-08-03T14:05:03.907Z,20.67
2022-08-03T14:07:30.445Z,16.35
2022-08-03T14:09:57.017Z,14.68
2022-08-03T14:12:23.532Z,12.32
2022-08-03T14:14:50.063Z,16.70
2022-08-03T14:17:16.736Z,11.23
2022-08-03T14:19:52.478Z,11.63
2022-08-03T14:22:21.025Z,12.50
2022-08-03T14:24:47.517Z,12.32
2022-08-03T14:27:15.810Z,10.85
2022-08-03T14:29:42.280Z,12.40
2022-08-03T14:32:10.921Z,8.30
2022-08-03T14:34:38.813Z,13.32
2022-08-03T14:37:05.323Z,12.95
2022-08-03T14:39:58.262Z,9.88
2022-08-03T14:42:20.102Z,11.75
2022-08-03T14:44:46.682Z,15.52
2022-08-03T14:47:13.516Z,12.18
2022-08-03T14:50:36.288Z,7.25
2022-08-03T14:52:26.844Z,12.40
2022-08-03T14:54:53.385Z,12.40
2022-08-03T14:57:19.913Z,10.23
2022-08-03T14:59:55.874Z,11.85
2022-08-03T15:02:24.452Z,14.55
2022-08-03T15:04:51.378Z,9.32
2022-08-03T15:07:18.147Z,12.10
2022-08-03T15:09:44.943Z,15.93
2022-08-03T15:12:11.490Z,13.73
2022-08-03T15:14:40.276Z,13.30
2022-08-03T15:17:07.000Z,13.50
2022-08-03T15:20:03.403Z,9.32
2022-08-03T15:22:25.181Z,11.13
2022-08-03T15:25:01.959Z,13.73
2022-08-03T15:27:28.466Z,11.77
2022-08-03T15:30:05.427Z,9.38
2022-08-03T15:32:34.585Z,10.80
2022-08-03T15:35:01.634Z,13.80
2022-08-03T15:37:28.552Z,12.63
2022-08-03T15:39:59.203Z,14.50
2022-08-03T15:44:57.194Z,11.95
2022-08-03T15:47:23.613Z,13.75
2022-08-03T15:49:50.057Z,12.88
2022-08-03T15:52:16.552Z,15.07
2022-08-03T15:54:43.101Z,14.60
2022-08-03T15:57:09.559Z,10.90
2022-08-03T15:59:36.413Z,10.43
2022-08-03T16:02:03.563Z,12.13
2022-08-03T16:04:30.202Z,11.18
2022-08-03T16:06:56.695Z,9.32
2022-08-03T16:09:43.141Z,9.73
2022-08-03T16:12:11.741Z,11.60
2022-08-03T16:14:51.729Z,8.75
2022-08-03T16:17:19.479Z,8.15
2022-08-03T16:19:46.225Z,9.18
2022-08-03T16:22:14.372Z,10.82
2022-08-03T16:24:41.317Z,6.18
2022-08-03T16:27:37.522Z,9.15
2022-08-03T16:29:54.554Z,6.40
2022-08-03T16:32:21.060Z,9.38
2022-08-03T16:34:48.148Z,9.27
2022-08-03T16:37:37.644Z,9.05
2022-08-03T16:40:02.340Z,13.50
2022-08-03T16:42:29.315Z,13.93
2022-08-03T16:44:55.815Z,14.23
2022-08-03T16:47:22.917Z,11.90
2022-08-03T16:49:52.984Z,8.30
2022-08-03T16:52:23.142Z,11.95
2022-08-03T16:54:52.698Z,13.90
2022-08-03T16:57:58.400Z,7.88
2022-08-03T17:00:12.006Z,11.15
2022-08-03T17:02:48.016Z,10.50
2022-08-03T17:05:14.820Z,8.98
2022-08-03T17:07:41.463Z,8.45
2022-08-03T17:12:40.369Z,9.82
2022-08-03T17:15:10.739Z,10.05
2022-08-03T17:17:47.604Z,10.32
2022-08-03T17:20:29.763Z,10.95
2022-08-03T17:23:02.971Z,8.55
2022-08-03T17:25:39.927Z,10.02
2022-08-03T17:28:48.844Z,11.20
2022-08-03T17:31:31.843Z,9.60
2022-08-03T17:34:01.480Z,13.40
2022-08-03T17:36:47.604Z,15.40
2022-08-03T17:39:16.765Z,22.38
2022-08-03T17:44:42.832Z,18.33
2022-08-03T17:47:12.768Z,12.77
2022-08-03T17:49:46.140Z,13.48
2022-08-03T17:52:30.917Z,15.10
2022-08-03T17:55:57.138Z,14.35
2022-08-03T17:58:13.601Z,13.23
2022-08-03T18:01:04.298Z,17.75
2022-08-03T18:03:58.386Z,14.43
2022-08-03T18:06:30.888Z,16.02
2022-08-03T18:09:00.048Z,17.35
2022-08-03T18:11:37.275Z,20.13
2022-08-03T18:14:16.626Z,24.17
2022-08-03T18:17:05.476Z,16.23
2022-08-03T18:22:27.869Z,15.23
2022-08-03T18:24:58.946Z,11.55
2022-08-03T18:27:45.621Z,19.70
2022-08-03T18:30:14.403Z,16.25
2022-08-03T18:32:43.276Z,19.27
2022-08-03T18:38:18.889Z,14.88
2022-08-03T18:40:48.580Z,16.05
2022-08-03T18:43:17.466Z,10.32
2022-08-03T18:45:57.506Z,15.40
2022-08-03T18:48:51.865Z,16.17
2022-08-03T18:51:24.197Z,13.57
2022-08-03T18:54:12.076Z,16.45
2022-08-03T18:57:01.853Z,16.23
2022-08-03T18:59:38.209Z,11.65
2022-08-03T19:02:25.365Z,20.30
2022-08-03T19:04:54.379Z,14.07
2022-08-03T19:07:35.973Z,12.05
2022-08-03T19:12:58.605Z,13.65
2022-08-03T19:15:41.293Z,12.82
2022-08-03T19:18:21.887Z,11.27
2022-08-03T19:20:51.573Z,16.95
2022-08-03T19:23:25.146Z,15.95
2022-08-03T19:25:56.053Z,16.92
2022-08-03T19:28:29.609Z,20.85
2022-08-03T19:31:00.404Z,11.70
2022-08-03T19:33:33.205Z,16.25
2022-08-03T19:36:26.343Z,13.90
2022-08-03T19:38:57.808Z,17.00
2022-08-03T19:41:31.276Z,19.27
2022-08-03T19:44:12.909Z,10.30
2022-08-03T19:46:52.109Z,10.00
2022-08-03T19:49:19.981Z,11.55
2022-08-03T19:52:00.997Z,13.82
2022-08-03T19:54:45.424Z,12.30
2022-08-03T19:57:23.381Z,16.63
2022-08-03T19:59:52.446Z,13.30
2022-08-03T20:02:27.145Z,9.68
2022-08-03T20:04:56.967Z,12.23
2022-08-03T20:07:26.990Z,14.48
2022-08-03T20:09:56.528Z,12.43
2022-08-03T20:12:28.841Z,8.85
2022-08-03T20:14:59.168Z,14.35
2022-08-03T20:17:54.421Z,9.50
2022-08-03T20:20:19.460Z,11.13
2022-08-03T20:22:52.585Z,12.45
2022-08-03T20:25:26.567Z,11.50
2022-08-03T20:28:14.520Z,13.98
2022-08-03T20:30:44.068Z,12.68
2022-08-03T20:33:11.055Z,15.35
2022-08-03T20:35:37.926Z,18.55
2022-08-03T20:38:09.254Z,15.30
2022-08-03T20:40:36.482Z,13.40
2022-08-03T20:43:04.681Z,11.65
2022-08-03T20:46:01.206Z,13.50
2022-08-03T20:48:18.371Z,18.95
2022-08-03T20:50:49.425Z,12.30
2022-08-03T20:53:41.316Z,16.77
2022-08-03T20:56:08.425Z,9.02
2022-08-03T20:58:36.134Z,11.80
2022-08-03T21:01:03.182Z,16.25
2022-08-03T21:03:40.656Z,17.52
2022-08-03T21:06:27.548Z,13.45
2022-08-03T21:09:07.022Z,10.82
2022-08-03T21:11:42.738Z,11.02
2022-08-03T21:12:58.523Z,17.92
2022-08-03T21:13:04.251Z,13.93
2022-08-03T21:13:04.791Z,19.85
2022-08-03T21:13:08.689Z,14.73
2022-08-03T21:14:32.836Z,15.25
2022-08-03T21:17:03.595Z,11.70
2022-08-03T21:19:39.134Z,9.50
2022-08-03T21:22:22.891Z,15.10
2022-08-03T21:24:55.764Z,13.80
2022-08-03T21:27:23.816Z,14.85
2022-08-03T21:29:53.400Z,10.27
2022-08-03T21:32:32.685Z,13.27
2022-08-03T21:35:00.673Z,11.20
2022-08-03T21:37:28.314Z,15.05
2022-08-03T21:39:55.765Z,11.35
2022-08-03T21:42:25.846Z,10.65
2022-08-03T21:44:53.411Z,12.98
2022-08-03T21:47:22.717Z,15.80
2022-08-03T21:50:06.837Z,14.90
2022-08-03T21:52:40.862Z,16.67
2022-08-03T21:55:07.713Z,12.95
2022-08-03T21:57:38.377Z,10.25
2022-08-03T22:00:12.731Z,12.35
2022-08-03T22:02:42.820Z,20.63
2022-08-03T22:05:09.737Z,10.43
2022-08-03T22:07:43.301Z,12.25
2022-08-03T22:10:10.809Z,10.55
2022-08-03T22:12:37.405Z,14.15
2022-08-03T22:15:06.829Z,7.57
2022-08-03T22:17:54.824Z,16.30
2022-08-03T22:20:22.474Z,12.75
2022-08-03T22:22:55.019Z,16.80
2022-08-03T22:25:27.129Z,14.60
2022-08-03T22:27:54.256Z,13.63
2022-08-03T22:30:21.192Z,12.55
2022-08-03T22:32:52.651Z,18.75
2022-08-03T22:35:21.307Z,15.65
2022-08-03T22:37:53.740Z,15.02
2022-08-03T22:40:21.162Z,14.95
2022-08-03T22:42:49.520Z,17.42
2022-08-03T22:45:45.782Z,19.63
2022-08-03T22:48:08.135Z,14.23
2022-08-03T22:50:35.470Z,11.40
2022-08-03T22:53:02.017Z,17.98
2022-08-03T22:55:28.759Z,15.07
2022-08-03T22:57:55.911Z,15.85
2022-08-03T23:00:23.822Z,16.98
2022-08-03T23:02:51.866Z,14.80
2022-08-03T23:06:01.320Z,14.80
2022-08-03T23:08:14.955Z,13.80
2022-08-03T23:10:46.720Z,10.88
2022-08-03T23:13:16.890Z,14.18
2022-08-03T23:15:55.202Z,9.32
2022-08-03T23:18:23.635Z,16.75
2022-08-03T23:20:52.872Z,17.08
2022-08-03T23:23:20.559Z,12.75
2022-08-03T23:25:50.072Z,11.95
2022-08-03T23:28:17.896Z,15.63
2022-08-03T23:30:45.310Z,18.60
2022-08-03T23:33:14.754Z,15.73
2022-08-03T23:36:20.123Z,17.23
2022-08-03T23:41:12.530Z,22.70
2022-08-03T23:43:50.832Z,12.25
2022-08-03T23:46:21.101Z,19.65
2022-08-03T23:48:47.589Z,16.63
2022-08-03T23:51:23.468Z,16.98
2022-08-03T23:54:06.198Z,14.07
2022-08-03T23:56:59.892Z,21.30
2022-08-03T23:59:35.571Z,14.77
